Athensville, Illinois
Current Conditions -  °F | °C
As of 2:55 PM on Thursday 23 Oct 2014 (Local Time) from KIJX Reporting Station
Broken Clouds Broken Clouds  
Wind Chill: 19°   Ceiling: 5500
Heat Index: 19°   Visibility: 10mi
Dew Point:   Wind: 10mph
Humidity: 48%   Direction: 190°S
Pressure: 30.1"   Gusts: NA
Location:  39.491°N, 90.2996°W
Report Text: KIJX 231955Z AUTO 19009KT 10SM SCT048 BKN055 19/07 A3010 RMK AO2 T01870074
Loading
Personal Weather Stations






























Interactive Weather Map
Tropical Storm Tracking
New forecast layout! Learn more

10-Day Weather Forecast

Advertisements
Track Severe Weather on mobile